sensor_id;sensor_type;location;lat;lon;timestamp;P1;durP1;ratioP1;P2;durP2;ratioP2
11761;SDS011;5938;47.098;15.474;2023-05-07T00:02:35;16.70;;;15.00;;
11761;SDS011;5938;47.098;15.474;2023-05-07T00:06:39;15.93;;;14.13;;
11761;SDS011;5938;47.098;15.474;2023-05-07T00:10:43;14.97;;;13.53;;
11761;SDS011;5938;47.098;15.474;2023-05-07T00:14:47;15.57;;;14.10;;
11761;SDS011;5938;47.098;15.474;2023-05-07T00:18:52;17.03;;;14.63;;
11761;SDS011;5938;47.098;15.474;2023-05-07T00:22:55;17.07;;;15.37;;
11761;SDS011;5938;47.098;15.474;2023-05-07T00:26:59;17.50;;;15.70;;
11761;SDS011;5938;47.098;15.474;2023-05-07T00:31:03;14.37;;;12.97;;
11761;SDS011;5938;47.098;15.474;2023-05-07T00:35:08;16.30;;;12.23;;
11761;SDS011;5938;47.098;15.474;2023-05-07T00:39:12;13.70;;;12.40;;
11761;SDS011;5938;47.098;15.474;2023-05-07T00:43:15;15.17;;;10.50;;
11761;SDS011;5938;47.098;15.474;2023-05-07T00:47:19;14.80;;;10.60;;
11761;SDS011;5938;47.098;15.474;2023-05-07T00:51:23;11.07;;;9.93;;
11761;SDS011;5938;47.098;15.474;2023-05-07T00:55:28;13.43;;;11.30;;
11761;SDS011;5938;47.098;15.474;2023-05-07T00:59:32;13.03;;;11.70;;
11761;SDS011;5938;47.098;15.474;2023-05-07T01:03:36;12.80;;;11.27;;
11761;SDS011;5938;47.098;15.474;2023-05-07T01:07:41;13.67;;;11.90;;
11761;SDS011;5938;47.098;15.474;2023-05-07T01:11:45;12.03;;;10.80;;
11761;SDS011;5938;47.098;15.474;2023-05-07T01:15:50;10.90;;;9.63;;
11761;SDS011;5938;47.098;15.474;2023-05-07T01:19:53;9.73;;;8.80;;
11761;SDS011;5938;47.098;15.474;2023-05-07T01:23:59;12.37;;;10.17;;
11761;SDS011;5938;47.098;15.474;2023-05-07T01:28:03;14.27;;;9.77;;
11761;SDS011;5938;47.098;15.474;2023-05-07T01:32:07;15.93;;;10.63;;
11761;SDS011;5938;47.098;15.474;2023-05-07T01:36:11;11.23;;;8.70;;
11761;SDS011;5938;47.098;15.474;2023-05-07T01:40:17;11.23;;;10.13;;
11761;SDS011;5938;47.098;15.474;2023-05-07T01:44:20;10.33;;;8.83;;
11761;SDS011;5938;47.098;15.474;2023-05-07T01:48:24;12.80;;;10.70;;
11761;SDS011;5938;47.098;15.474;2023-05-07T01:52:28;14.20;;;10.60;;
11761;SDS011;5938;47.098;15.474;2023-05-07T01:56:32;10.70;;;9.63;;
11761;SDS011;5938;47.098;15.474;2023-05-07T02:00:36;10.07;;;9.00;;
11761;SDS011;5938;47.098;15.474;2023-05-07T02:04:39;10.60;;;9.60;;
11761;SDS011;5938;47.098;15.474;2023-05-07T02:08:43;12.00;;;10.73;;
11761;SDS011;5938;47.098;15.474;2023-05-07T02:12:47;11.60;;;9.77;;
11761;SDS011;5938;47.098;15.474;2023-05-07T02:16:50;12.93;;;9.70;;
11761;SDS011;5938;47.098;15.474;2023-05-07T02:20:54;10.60;;;9.47;;
11761;SDS011;5938;47.098;15.474;2023-05-07T02:24:57;11.40;;;10.27;;
11761;SDS011;5938;47.098;15.474;2023-05-07T02:29:02;12.27;;;9.33;;
11761;SDS011;5938;47.098;15.474;2023-05-07T02:33:05;10.60;;;9.50;;
11761;SDS011;5938;47.098;15.474;2023-05-07T02:37:10;11.17;;;10.03;;
11761;SDS011;5938;47.098;15.474;2023-05-07T02:41:13;13.20;;;8.70;;
11761;SDS011;5938;47.098;15.474;2023-05-07T02:45:17;9.20;;;8.03;;
11761;SDS011;5938;47.098;15.474;2023-05-07T02:49:21;11.50;;;9.70;;
11761;SDS011;5938;47.098;15.474;2023-05-07T02:53:24;12.20;;;9.47;;
11761;SDS011;5938;47.098;15.474;2023-05-07T02:57:27;11.23;;;10.13;;
11761;SDS011;5938;47.098;15.474;2023-05-07T03:01:32;11.03;;;9.90;;
11761;SDS011;5938;47.098;15.474;2023-05-07T03:05:36;19.20;;;11.27;;
11761;SDS011;5938;47.098;15.474;2023-05-07T03:09:39;11.13;;;9.70;;
11761;SDS011;5938;47.098;15.474;2023-05-07T03:13:42;11.13;;;9.50;;
11761;SDS011;5938;47.098;15.474;2023-05-07T03:17:47;10.90;;;9.57;;
11761;SDS011;5938;47.098;15.474;2023-05-07T03:21:50;10.43;;;9.10;;
11761;SDS011;5938;47.098;15.474;2023-05-07T03:25:53;10.67;;;9.57;;
11761;SDS011;5938;47.098;15.474;2023-05-07T03:29:57;14.67;;;9.83;;
11761;SDS011;5938;47.098;15.474;2023-05-07T03:34:01;12.53;;;10.57;;
11761;SDS011;5938;47.098;15.474;2023-05-07T03:38:04;12.03;;;10.70;;
11761;SDS011;5938;47.098;15.474;2023-05-07T03:42:08;24.27;;;10.90;;
11761;SDS011;5938;47.098;15.474;2023-05-07T03:46:11;12.63;;;11.07;;
11761;SDS011;5938;47.098;15.474;2023-05-07T03:50:16;25.10;;;12.27;;
11761;SDS011;5938;47.098;15.474;2023-05-07T03:54:19;11.70;;;10.30;;
11761;SDS011;5938;47.098;15.474;2023-05-07T03:58:22;10.93;;;8.43;;
11761;SDS011;5938;47.098;15.474;2023-05-07T04:02:25;19.50;;;10.90;;
11761;SDS011;5938;47.098;15.474;2023-05-07T04:06:31;13.93;;;9.30;;
11761;SDS011;5938;47.098;15.474;2023-05-07T04:10:34;10.27;;;9.23;;
11761;SDS011;5938;47.098;15.474;2023-05-07T04:14:37;10.10;;;9.10;;
11761;SDS011;5938;47.098;15.474;2023-05-07T04:18:40;9.50;;;8.70;;
11761;SDS011;5938;47.098;15.474;2023-05-07T04:22:45;12.83;;;9.20;;
11761;SDS011;5938;47.098;15.474;2023-05-07T04:26:49;10.27;;;9.13;;
11761;SDS011;5938;47.098;15.474;2023-05-07T04:30:54;9.83;;;8.53;;
11761;SDS011;5938;47.098;15.474;2023-05-07T04:34:57;9.70;;;8.80;;
11761;SDS011;5938;47.098;15.474;2023-05-07T04:39:01;8.80;;;7.90;;
11761;SDS011;5938;47.098;15.474;2023-05-07T04:43:05;9.30;;;8.40;;
11761;SDS011;5938;47.098;15.474;2023-05-07T04:47:08;7.70;;;7.00;;
11761;SDS011;5938;47.098;15.474;2023-05-07T04:51:12;8.93;;;8.13;;
11761;SDS011;5938;47.098;15.474;2023-05-07T04:55:16;8.93;;;8.13;;
11761;SDS011;5938;47.098;15.474;2023-05-07T04:59:19;8.83;;;8.03;;
11761;SDS011;5938;47.098;15.474;2023-05-07T05:03:23;7.57;;;6.77;;
11761;SDS011;5938;47.098;15.474;2023-05-07T05:07:26;6.90;;;6.30;;
11761;SDS011;5938;47.098;15.474;2023-05-07T05:11:31;5.83;;;5.33;;
11761;SDS011;5938;47.098;15.474;2023-05-07T05:15:34;6.60;;;6.00;;
11761;SDS011;5938;47.098;15.474;2023-05-07T05:19:37;6.10;;;5.57;;
11761;SDS011;5938;47.098;15.474;2023-05-07T05:23:40;6.30;;;5.47;;
11761;SDS011;5938;47.098;15.474;2023-05-07T05:27:45;6.80;;;6.10;;
11761;SDS011;5938;47.098;15.474;2023-05-07T05:31:48;5.50;;;4.80;;
11761;SDS011;5938;47.098;15.474;2023-05-07T05:35:53;8.90;;;5.73;;
11761;SDS011;5938;47.098;15.474;2023-05-07T05:39:56;6.10;;;5.50;;
11761;SDS011;5938;47.098;15.474;2023-05-07T05:44:01;5.70;;;5.27;;
11761;SDS011;5938;47.098;15.474;2023-05-07T05:48:05;5.30;;;4.90;;
11761;SDS011;5938;47.098;15.474;2023-05-07T05:52:09;5.40;;;4.90;;
11761;SDS011;5938;47.098;15.474;2023-05-07T05:56:14;6.57;;;5.97;;
11761;SDS011;5938;47.098;15.474;2023-05-07T06:00:19;4.67;;;4.27;;
11761;SDS011;5938;47.098;15.474;2023-05-07T06:04:24;6.47;;;4.90;;
11761;SDS011;5938;47.098;15.474;2023-05-07T06:08:28;5.53;;;5.03;;
11761;SDS011;5938;47.098;15.474;2023-05-07T06:12:32;5.80;;;5.20;;
11761;SDS011;5938;47.098;15.474;2023-05-07T06:16:37;5.30;;;4.80;;
11761;SDS011;5938;47.098;15.474;2023-05-07T06:20:40;6.20;;;4.73;;
11761;SDS011;5938;47.098;15.474;2023-05-07T06:24:43;6.07;;;5.57;;
11761;SDS011;5938;47.098;15.474;2023-05-07T06:28:47;6.13;;;5.63;;
11761;SDS011;5938;47.098;15.474;2023-05-07T06:32:52;4.33;;;4.03;;
11761;SDS011;5938;47.098;15.474;2023-05-07T06:36:55;7.07;;;4.93;;
11761;SDS011;5938;47.098;15.474;2023-05-07T06:40:58;5.57;;;5.07;;
11761;SDS011;5938;47.098;15.474;2023-05-07T06:45:01;5.10;;;4.70;;
11761;SDS011;5938;47.098;15.474;2023-05-07T06:49:06;7.20;;;6.50;;
11761;SDS011;5938;47.098;15.474;2023-05-07T06:53:10;6.87;;;6.27;;
11761;SDS011;5938;47.098;15.474;2023-05-07T06:57:13;6.07;;;5.47;;
11761;SDS011;5938;47.098;15.474;2023-05-07T07:01:16;7.10;;;6.40;;
11761;SDS011;5938;47.098;15.474;2023-05-07T07:05:21;9.87;;;7.63;;
11761;SDS011;5938;47.098;15.474;2023-05-07T07:09:24;7.13;;;6.50;;
11761;SDS011;5938;47.098;15.474;2023-05-07T07:13:27;6.10;;;5.50;;
11761;SDS011;5938;47.098;15.474;2023-05-07T07:17:30;8.30;;;6.50;;
11761;SDS011;5938;47.098;15.474;2023-05-07T07:21:35;7.23;;;6.53;;
11761;SDS011;5938;47.098;15.474;2023-05-07T07:25:38;6.60;;;6.00;;
11761;SDS011;5938;47.098;15.474;2023-05-07T07:29:42;7.00;;;6.40;;
11761;SDS011;5938;47.098;15.474;2023-05-07T07:33:46;6.60;;;5.90;;
11761;SDS011;5938;47.098;15.474;2023-05-07T07:37:54;7.23;;;6.50;;
11761;SDS011;5938;47.098;15.474;2023-05-07T07:41:58;7.07;;;6.37;;
11761;SDS011;5938;47.098;15.474;2023-05-07T07:46:01;6.90;;;6.30;;
11761;SDS011;5938;47.098;15.474;2023-05-07T07:50:05;7.30;;;6.70;;
11761;SDS011;5938;47.098;15.474;2023-05-07T07:54:10;7.33;;;6.73;;
11761;SDS011;5938;47.098;15.474;2023-05-07T07:58:14;7.20;;;6.20;;
11761;SDS011;5938;47.098;15.474;2023-05-07T08:02:17;9.63;;;6.40;;
11761;SDS011;5938;47.098;15.474;2023-05-07T08:06:20;6.73;;;6.13;;
11761;SDS011;5938;47.098;15.474;2023-05-07T08:10:25;6.20;;;5.70;;
11761;SDS011;5938;47.098;15.474;2023-05-07T08:14:28;6.70;;;6.20;;
11761;SDS011;5938;47.098;15.474;2023-05-07T08:18:32;6.93;;;6.33;;
11761;SDS011;5938;47.098;15.474;2023-05-07T08:22:38;8.63;;;6.17;;
11761;SDS011;5938;47.098;15.474;2023-05-07T08:26:43;5.90;;;5.40;;
11761;SDS011;5938;47.098;15.474;2023-05-07T08:30:48;5.50;;;5.10;;
11761;SDS011;5938;47.098;15.474;2023-05-07T08:34:51;5.57;;;4.97;;
11761;SDS011;5938;47.098;15.474;2023-05-07T08:38:55;5.23;;;4.83;;
11761;SDS011;5938;47.098;15.474;2023-05-07T08:43:00;5.07;;;4.70;;
11761;SDS011;5938;47.098;15.474;2023-05-07T08:47:06;5.23;;;4.83;;
11761;SDS011;5938;47.098;15.474;2023-05-07T08:51:11;4.53;;;4.23;;
11761;SDS011;5938;47.098;15.474;2023-05-07T08:55:15;5.20;;;4.70;;
11761;SDS011;5938;47.098;15.474;2023-05-07T08:59:22;4.40;;;4.10;;
11761;SDS011;5938;47.098;15.474;2023-05-07T09:03:25;5.03;;;4.53;;
11761;SDS011;5938;47.098;15.474;2023-05-07T09:07:28;4.53;;;4.00;;
11761;SDS011;5938;47.098;15.474;2023-05-07T09:11:33;4.70;;;4.30;;
11761;SDS011;5938;47.098;15.474;2023-05-07T09:15:38;4.53;;;4.20;;
11761;SDS011;5938;47.098;15.474;2023-05-07T09:19:41;5.73;;;4.40;;
11761;SDS011;5938;47.098;15.474;2023-05-07T09:23:47;3.90;;;3.60;;
11761;SDS011;5938;47.098;15.474;2023-05-07T09:27:51;4.33;;;3.93;;
11761;SDS011;5938;47.098;15.474;2023-05-07T09:31:56;4.20;;;3.90;;
11761;SDS011;5938;47.098;15.474;2023-05-07T09:36:04;4.43;;;4.00;;
11761;SDS011;5938;47.098;15.474;2023-05-07T09:40:08;3.80;;;3.40;;
11761;SDS011;5938;47.098;15.474;2023-05-07T09:44:23;3.43;;;3.20;;
11761;SDS011;5938;47.098;15.474;2023-05-07T09:48:29;3.97;;;3.60;;
11761;SDS011;5938;47.098;15.474;2023-05-07T09:52:33;3.60;;;3.40;;
11761;SDS011;5938;47.098;15.474;2023-05-07T09:56:37;4.53;;;3.60;;
11761;SDS011;5938;47.098;15.474;2023-05-07T10:00:42;3.83;;;3.60;;
11761;SDS011;5938;47.098;15.474;2023-05-07T10:04:47;3.53;;;3.23;;
11761;SDS011;5938;47.098;15.474;2023-05-07T10:08:51;3.17;;;2.93;;
11761;SDS011;5938;47.098;15.474;2023-05-07T10:12:55;3.53;;;3.33;;
11761;SDS011;5938;47.098;15.474;2023-05-07T10:16:59;5.03;;;3.03;;
11761;SDS011;5938;47.098;15.474;2023-05-07T10:21:06;3.17;;;2.90;;
11761;SDS011;5938;47.098;15.474;2023-05-07T10:25:14;3.60;;;3.40;;
11761;SDS011;5938;47.098;15.474;2023-05-07T10:29:28;3.70;;;3.40;;
11761;SDS011;5938;47.098;15.474;2023-05-07T10:33:37;3.50;;;3.30;;
11761;SDS011;5938;47.098;15.474;2023-05-07T10:37:43;3.80;;;3.37;;
11761;SDS011;5938;47.098;15.474;2023-05-07T10:41:47;3.20;;;2.93;;
11761;SDS011;5938;47.098;15.474;2023-05-07T10:50:22;3.77;;;3.47;;
11761;SDS011;5938;47.098;15.474;2023-05-07T10:54:27;3.93;;;3.70;;
11761;SDS011;5938;47.098;15.474;2023-05-07T10:58:30;3.30;;;3.00;;
11761;SDS011;5938;47.098;15.474;2023-05-07T11:07:14;4.20;;;2.77;;
11761;SDS011;5938;47.098;15.474;2023-05-07T11:11:46;3.80;;;3.40;;
11761;SDS011;5938;47.098;15.474;2023-05-07T11:15:52;3.43;;;3.23;;
11761;SDS011;5938;47.098;15.474;2023-05-07T11:19:56;4.17;;;3.00;;
11761;SDS011;5938;47.098;15.474;2023-05-07T11:23:59;3.40;;;3.10;;
11761;SDS011;5938;47.098;15.474;2023-05-07T11:28:05;3.40;;;3.10;;
11761;SDS011;5938;47.098;15.474;2023-05-07T11:32:12;2.73;;;2.53;;
11761;SDS011;5938;47.098;15.474;2023-05-07T11:36:15;5.10;;;2.87;;
11761;SDS011;5938;47.098;15.474;2023-05-07T11:40:19;3.03;;;2.83;;
11761;SDS011;5938;47.098;15.474;2023-05-07T11:44:23;3.63;;;3.33;;
11761;SDS011;5938;47.098;15.474;2023-05-07T11:48:26;3.47;;;3.27;;
11761;SDS011;5938;47.098;15.474;2023-05-07T11:52:30;3.43;;;3.13;;
11761;SDS011;5938;47.098;15.474;2023-05-07T11:56:35;2.90;;;2.70;;
11761;SDS011;5938;47.098;15.474;2023-05-07T12:00:39;3.10;;;2.90;;
11761;SDS011;5938;47.098;15.474;2023-05-07T12:04:53;2.50;;;2.30;;
11761;SDS011;5938;47.098;15.474;2023-05-07T12:08:57;2.90;;;2.70;;
11761;SDS011;5938;47.098;15.474;2023-05-07T12:13:13;3.40;;;3.10;;
11761;SDS011;5938;47.098;15.474;2023-05-07T12:17:18;3.40;;;2.53;;
11761;SDS011;5938;47.098;15.474;2023-05-07T12:21:22;2.57;;;2.37;;
11761;SDS011;5938;47.098;15.474;2023-05-07T12:25:26;6.80;;;5.27;;
11761;SDS011;5938;47.098;15.474;2023-05-07T12:29:32;3.50;;;3.20;;
11761;SDS011;5938;47.098;15.474;2023-05-07T12:33:36;3.97;;;3.27;;
11761;SDS011;5938;47.098;15.474;2023-05-07T12:37:39;3.47;;;3.17;;
11761;SDS011;5938;47.098;15.474;2023-05-07T12:41:53;3.77;;;3.53;;
11761;SDS011;5938;47.098;15.474;2023-05-07T12:45:59;3.30;;;3.10;;
11761;SDS011;5938;47.098;15.474;2023-05-07T12:50:07;3.63;;;3.20;;
11761;SDS011;5938;47.098;15.474;2023-05-07T12:54:10;3.40;;;3.03;;
11761;SDS011;5938;47.098;15.474;2023-05-07T12:58:14;3.70;;;3.40;;
11761;SDS011;5938;47.098;15.474;2023-05-07T13:02:21;6.07;;;2.93;;
11761;SDS011;5938;47.098;15.474;2023-05-07T13:06:37;5.20;;;4.07;;
11761;SDS011;5938;47.098;15.474;2023-05-07T13:10:41;3.83;;;3.47;;
11761;SDS011;5938;47.098;15.474;2023-05-07T13:14:44;4.07;;;3.77;;
11761;SDS011;5938;47.098;15.474;2023-05-07T13:18:48;4.43;;;4.10;;
11761;SDS011;5938;47.098;15.474;2023-05-07T13:22:52;5.43;;;4.93;;
11761;SDS011;5938;47.098;15.474;2023-05-07T13:26:56;8.30;;;7.50;;
11761;SDS011;5938;47.098;15.474;2023-05-07T13:31:01;8.43;;;7.63;;
11761;SDS011;5938;47.098;15.474;2023-05-07T13:35:04;11.93;;;10.73;;
11761;SDS011;5938;47.098;15.474;2023-05-07T13:39:12;12.07;;;10.87;;
11761;SDS011;5938;47.098;15.474;2023-05-07T13:43:16;13.50;;;11.10;;
11761;SDS011;5938;47.098;15.474;2023-05-07T13:47:20;13.27;;;12.10;;
11761;SDS011;5938;47.098;15.474;2023-05-07T13:51:25;12.70;;;11.60;;
11761;SDS011;5938;47.098;15.474;2023-05-07T13:55:30;12.53;;;11.23;;
11761;SDS011;5938;47.098;15.474;2023-05-07T13:59:34;12.80;;;11.63;;
11761;SDS011;5938;47.098;15.474;2023-05-07T14:03:38;16.20;;;13.50;;
11761;SDS011;5938;47.098;15.474;2023-05-07T14:07:42;12.73;;;11.63;;
11761;SDS011;5938;47.098;15.474;2023-05-07T14:11:47;14.17;;;12.60;;
11761;SDS011;5938;47.098;15.474;2023-05-07T14:15:52;15.63;;;13.13;;
11761;SDS011;5938;47.098;15.474;2023-05-07T14:19:56;14.23;;;12.83;;
11761;SDS011;5938;47.098;15.474;2023-05-07T14:24:01;13.23;;;12.03;;
11761;SDS011;5938;47.098;15.474;2023-05-07T14:28:06;11.80;;;10.57;;
11761;SDS011;5938;47.098;15.474;2023-05-07T14:32:10;12.13;;;10.93;;
11761;SDS011;5938;47.098;15.474;2023-05-07T14:36:13;13.53;;;10.60;;
11761;SDS011;5938;47.098;15.474;2023-05-07T14:40:17;10.07;;;9.17;;
11761;SDS011;5938;47.098;15.474;2023-05-07T14:44:23;10.33;;;9.43;;
11761;SDS011;5938;47.098;15.474;2023-05-07T14:48:27;9.27;;;8.37;;
11761;SDS011;5938;47.098;15.474;2023-05-07T14:52:30;11.73;;;10.73;;
11761;SDS011;5938;47.098;15.474;2023-05-07T14:56:34;12.77;;;11.50;;
11761;SDS011;5938;47.098;15.474;2023-05-07T15:00:39;12.80;;;11.53;;
11761;SDS011;5938;47.098;15.474;2023-05-07T15:04:44;15.03;;;13.50;;
11761;SDS011;5938;47.098;15.474;2023-05-07T15:08:48;12.90;;;11.40;;
11761;SDS011;5938;47.098;15.474;2023-05-07T15:12:52;20.57;;;11.10;;
11761;SDS011;5938;47.098;15.474;2023-05-07T15:16:56;11.50;;;10.50;;
11761;SDS011;5938;47.098;15.474;2023-05-07T15:21:01;13.67;;;10.70;;
11761;SDS011;5938;47.098;15.474;2023-05-07T15:25:05;11.50;;;10.40;;
11761;SDS011;5938;47.098;15.474;2023-05-07T15:29:11;10.87;;;9.97;;
11761;SDS011;5938;47.098;15.474;2023-05-07T15:33:17;12.50;;;11.30;;
11761;SDS011;5938;47.098;15.474;2023-05-07T15:37:21;11.53;;;10.43;;
11761;SDS011;5938;47.098;15.474;2023-05-07T15:41:27;10.80;;;9.77;;
11761;SDS011;5938;47.098;15.474;2023-05-07T15:45:31;11.20;;;10.20;;
11761;SDS011;5938;47.098;15.474;2023-05-07T15:49:37;11.23;;;10.27;;
11761;SDS011;5938;47.098;15.474;2023-05-07T15:53:42;11.70;;;10.50;;
11761;SDS011;5938;47.098;15.474;2023-05-07T15:57:46;9.73;;;8.83;;
11761;SDS011;5938;47.098;15.474;2023-05-07T16:01:50;11.20;;;10.20;;
11761;SDS011;5938;47.098;15.474;2023-05-07T16:05:57;9.43;;;8.53;;
11761;SDS011;5938;47.098;15.474;2023-05-07T16:10:03;10.30;;;9.40;;
11761;SDS011;5938;47.098;15.474;2023-05-07T16:14:09;11.10;;;10.10;;
11761;SDS011;5938;47.098;15.474;2023-05-07T16:18:13;10.40;;;9.40;;
11761;SDS011;5938;47.098;15.474;2023-05-07T16:22:20;10.77;;;9.67;;
11761;SDS011;5938;47.098;15.474;2023-05-07T16:26:26;10.30;;;9.40;;
11761;SDS011;5938;47.098;15.474;2023-05-07T16:30:32;12.57;;;10.17;;
11761;SDS011;5938;47.098;15.474;2023-05-07T16:34:36;9.80;;;8.47;;
11761;SDS011;5938;47.098;15.474;2023-05-07T16:38:43;9.60;;;8.80;;
11761;SDS011;5938;47.098;15.474;2023-05-07T16:42:48;9.40;;;8.60;;
11761;SDS011;5938;47.098;15.474;2023-05-07T16:46:56;9.00;;;8.07;;
11761;SDS011;5938;47.098;15.474;2023-05-07T16:51:01;8.57;;;7.83;;
11761;SDS011;5938;47.098;15.474;2023-05-07T16:55:07;10.00;;;8.17;;
11761;SDS011;5938;47.098;15.474;2023-05-07T16:59:13;9.33;;;8.43;;
11761;SDS011;5938;47.098;15.474;2023-05-07T17:03:18;9.10;;;8.20;;
11761;SDS011;5938;47.098;15.474;2023-05-07T17:07:24;8.70;;;7.87;;
11761;SDS011;5938;47.098;15.474;2023-05-07T17:11:33;9.00;;;8.20;;
11761;SDS011;5938;47.098;15.474;2023-05-07T17:15:39;7.67;;;7.07;;
11761;SDS011;5938;47.098;15.474;2023-05-07T17:19:46;9.60;;;8.60;;
11761;SDS011;5938;47.098;15.474;2023-05-07T17:23:51;8.33;;;7.63;;
11761;SDS011;5938;47.098;15.474;2023-05-07T17:27:57;9.63;;;8.80;;
11761;SDS011;5938;47.098;15.474;2023-05-07T17:32:01;10.50;;;9.50;;
11761;SDS011;5938;47.098;15.474;2023-05-07T17:36:08;9.70;;;8.90;;
11761;SDS011;5938;47.098;15.474;2023-05-07T17:40:13;10.37;;;9.40;;
11761;SDS011;5938;47.098;15.474;2023-05-07T17:44:18;11.43;;;10.43;;
11761;SDS011;5938;47.098;15.474;2023-05-07T17:48:23;10.50;;;9.60;;
11761;SDS011;5938;47.098;15.474;2023-05-07T17:52:27;11.10;;;9.90;;
11761;SDS011;5938;47.098;15.474;2023-05-07T17:56:32;11.50;;;10.40;;
11761;SDS011;5938;47.098;15.474;2023-05-07T18:00:37;15.80;;;10.20;;
11761;SDS011;5938;47.098;15.474;2023-05-07T18:04:41;14.73;;;13.47;;
11761;SDS011;5938;47.098;15.474;2023-05-07T18:08:45;13.47;;;12.27;;
11761;SDS011;5938;47.098;15.474;2023-05-07T18:12:50;14.10;;;12.87;;
11761;SDS011;5938;47.098;15.474;2023-05-07T18:16:56;14.33;;;12.90;;
11761;SDS011;5938;47.098;15.474;2023-05-07T18:20:59;12.30;;;11.10;;
11761;SDS011;5938;47.098;15.474;2023-05-07T18:25:04;12.30;;;11.00;;
11761;SDS011;5938;47.098;15.474;2023-05-07T18:29:10;13.33;;;12.07;;
11761;SDS011;5938;47.098;15.474;2023-05-07T18:33:17;12.20;;;11.10;;
11761;SDS011;5938;47.098;15.474;2023-05-07T18:37:21;13.93;;;12.40;;
11761;SDS011;5938;47.098;15.474;2023-05-07T18:41:27;13.70;;;12.40;;
11761;SDS011;5938;47.098;15.474;2023-05-07T18:45:32;14.07;;;12.67;;
11761;SDS011;5938;47.098;15.474;2023-05-07T18:49:48;14.60;;;13.10;;
11761;SDS011;5938;47.098;15.474;2023-05-07T18:53:52;21.27;;;18.63;;
11761;SDS011;5938;47.098;15.474;2023-05-07T18:57:56;25.37;;;18.83;;
11761;SDS011;5938;47.098;15.474;2023-05-07T19:02:00;18.77;;;16.90;;
11761;SDS011;5938;47.098;15.474;2023-05-07T19:10:15;22.97;;;19.47;;
11761;SDS011;5938;47.098;15.474;2023-05-07T19:14:21;24.10;;;17.80;;
11761;SDS011;5938;47.098;15.474;2023-05-07T19:18:25;21.67;;;17.93;;
11761;SDS011;5938;47.098;15.474;2023-05-07T19:22:32;21.97;;;19.77;;
11761;SDS011;5938;47.098;15.474;2023-05-07T19:26:37;21.77;;;19.53;;
11761;SDS011;5938;47.098;15.474;2023-05-07T19:30:42;20.17;;;18.17;;
11761;SDS011;5938;47.098;15.474;2023-05-07T19:34:46;22.53;;;20.13;;
11761;SDS011;5938;47.098;15.474;2023-05-07T19:38:52;22.77;;;19.80;;
11761;SDS011;5938;47.098;15.474;2023-05-07T19:42:56;22.63;;;20.30;;
11761;SDS011;5938;47.098;15.474;2023-05-07T19:47:01;21.93;;;19.73;;
11761;SDS011;5938;47.098;15.474;2023-05-07T19:51:06;24.80;;;21.50;;
11761;SDS011;5938;47.098;15.474;2023-05-07T19:55:13;24.10;;;20.83;;
11761;SDS011;5938;47.098;15.474;2023-05-07T19:59:26;24.33;;;20.40;;
11761;SDS011;5938;47.098;15.474;2023-05-07T20:03:31;22.70;;;19.43;;
11761;SDS011;5938;47.098;15.474;2023-05-07T20:07:37;25.93;;;22.23;;
11761;SDS011;5938;47.098;15.474;2023-05-07T20:11:42;22.50;;;20.20;;
11761;SDS011;5938;47.098;15.474;2023-05-07T20:15:46;24.17;;;21.57;;
11761;SDS011;5938;47.098;15.474;2023-05-07T20:19:51;27.50;;;22.53;;
11761;SDS011;5938;47.098;15.474;2023-05-07T20:23:56;22.87;;;20.40;;
11761;SDS011;5938;47.098;15.474;2023-05-07T20:28:03;22.63;;;20.20;;
11761;SDS011;5938;47.098;15.474;2023-05-07T20:32:09;22.37;;;20.07;;
11761;SDS011;5938;47.098;15.474;2023-05-07T20:36:13;23.33;;;20.33;;
11761;SDS011;5938;47.098;15.474;2023-05-07T20:40:17;24.27;;;19.03;;
11761;SDS011;5938;47.098;15.474;2023-05-07T20:44:23;25.70;;;20.37;;
11761;SDS011;5938;47.098;15.474;2023-05-07T20:48:27;25.80;;;21.47;;
11761;SDS011;5938;47.098;15.474;2023-05-07T20:52:31;25.70;;;21.83;;
11761;SDS011;5938;47.098;15.474;2023-05-07T20:56:35;22.87;;;20.37;;
11761;SDS011;5938;47.098;15.474;2023-05-07T21:00:41;32.80;;;23.40;;
11761;SDS011;5938;47.098;15.474;2023-05-07T21:04:44;24.03;;;21.50;;
11761;SDS011;5938;47.098;15.474;2023-05-07T21:08:51;25.23;;;22.43;;
11761;SDS011;5938;47.098;15.474;2023-05-07T21:12:54;22.80;;;20.50;;
11761;SDS011;5938;47.098;15.474;2023-05-07T21:16:59;25.70;;;22.40;;
11761;SDS011;5938;47.098;15.474;2023-05-07T21:21:08;26.90;;;24.00;;
11761;SDS011;5938;47.098;15.474;2023-05-07T21:25:12;24.37;;;19.90;;
11761;SDS011;5938;47.098;15.474;2023-05-07T21:29:17;28.47;;;22.47;;
11761;SDS011;5938;47.098;15.474;2023-05-07T21:33:23;25.83;;;22.77;;
11761;SDS011;5938;47.098;15.474;2023-05-07T21:37:27;24.10;;;21.70;;
11761;SDS011;5938;47.098;15.474;2023-05-07T21:41:30;23.63;;;21.27;;
11761;SDS011;5938;47.098;15.474;2023-05-07T21:45:33;26.13;;;21.97;;
11761;SDS011;5938;47.098;15.474;2023-05-07T21:49:38;24.90;;;22.20;;
11761;SDS011;5938;47.098;15.474;2023-05-07T21:53:41;21.60;;;19.17;;
11761;SDS011;5938;47.098;15.474;2023-05-07T21:57:45;26.33;;;21.20;;
11761;SDS011;5938;47.098;15.474;2023-05-07T22:02:04;26.13;;;22.43;;
11761;SDS011;5938;47.098;15.474;2023-05-07T22:06:10;30.90;;;25.70;;
11761;SDS011;5938;47.098;15.474;2023-05-07T22:10:13;26.07;;;23.27;;
11761;SDS011;5938;47.098;15.474;2023-05-07T22:14:22;30.07;;;25.07;;
11761;SDS011;5938;47.098;15.474;2023-05-07T22:18:25;32.43;;;24.80;;
11761;SDS011;5938;47.098;15.474;2023-05-07T22:22:30;27.10;;;22.20;;
11761;SDS011;5938;47.098;15.474;2023-05-07T22:26:33;26.33;;;23.63;;
11761;SDS011;5938;47.098;15.474;2023-05-07T22:30:36;25.23;;;22.63;;
11761;SDS011;5938;47.098;15.474;2023-05-07T22:34:40;27.60;;;22.40;;
11761;SDS011;5938;47.098;15.474;2023-05-07T22:38:45;23.97;;;21.37;;
11761;SDS011;5938;47.098;15.474;2023-05-07T22:42:49;26.33;;;22.00;;
11761;SDS011;5938;47.098;15.474;2023-05-07T22:46:52;27.23;;;21.60;;
11761;SDS011;5938;47.098;15.474;2023-05-07T22:50:55;27.50;;;23.20;;
11761;SDS011;5938;47.098;15.474;2023-05-07T22:55:00;25.17;;;22.33;;
11761;SDS011;5938;47.098;15.474;2023-05-07T22:59:03;25.63;;;22.30;;
11761;SDS011;5938;47.098;15.474;2023-05-07T23:03:06;26.93;;;22.67;;
11761;SDS011;5938;47.098;15.474;2023-05-07T23:07:10;27.20;;;23.97;;
11761;SDS011;5938;47.098;15.474;2023-05-07T23:11:15;25.60;;;22.90;;
11761;SDS011;5938;47.098;15.474;2023-05-07T23:15:18;27.23;;;23.20;;
11761;SDS011;5938;47.098;15.474;2023-05-07T23:19:22;26.20;;;21.80;;
11761;SDS011;5938;47.098;15.474;2023-05-07T23:23:25;26.17;;;22.50;;
11761;SDS011;5938;47.098;15.474;2023-05-07T23:27:35;27.00;;;20.57;;
11761;SDS011;5938;47.098;15.474;2023-05-07T23:31:38;29.73;;;22.33;;
11761;SDS011;5938;47.098;15.474;2023-05-07T23:35:41;19.03;;;17.00;;
11761;SDS011;5938;47.098;15.474;2023-05-07T23:39:44;20.73;;;16.43;;
11761;SDS011;5938;47.098;15.474;2023-05-07T23:43:49;17.37;;;15.40;;
11761;SDS011;5938;47.098;15.474;2023-05-07T23:47:52;16.70;;;14.90;;
11761;SDS011;5938;47.098;15.474;2023-05-07T23:51:56;19.60;;;15.47;;
11761;SDS011;5938;47.098;15.474;2023-05-07T23:55:59;19.30;;;14.20;;
